Time;durP1;ratioP1;P1;durP2;ratioP2;P2;SDS_P1;SDS_P2;PMS_P1;PMS_P2;Temp;Humidity;BMP_temperature;BMP_pressure;BME280_temperature;BME280_humidity;BME280_pressure;Samples;Min_cycle;Max_cycle;Signal;HPM_P1;HPM_P2
2022/06/29 00:00:23;;;;;;;3.33;2.33;;;18.50;98.00;;;;;;4994260;28;20475;-67
2022/06/29 00:02:51;;;;;;;5.37;2.67;;;18.40;98.00;;;;;;4994352;28;20460;-68
2022/06/29 00:05:20;;;;;;;3.07;2.10;;;18.40;98.00;;;;;;4994122;28;20489;-67
2022/06/29 00:07:49;;;;;;;3.10;2.57;;;18.40;98.00;;;;;;4993517;28;20460;-67
2022/06/29 00:10:17;;;;;;;3.50;2.37;;;18.60;98.00;;;;;;4994197;28;20480;-67
2022/06/29 00:12:46;;;;;;;3.37;2.40;;;18.50;98.00;;;;;;4994279;28;20807;-67
2022/06/29 00:15:14;;;;;;;2.40;2.00;;;18.50;98.00;;;;;;4994061;28;20761;-67
2022/06/29 00:17:41;;;;;;;2.53;2.30;;;18.60;98.00;;;;;;4993994;28;20468;-68
2022/06/29 00:20:12;;;;;;;3.67;2.60;;;18.60;98.00;;;;;;4993844;28;20452;-67
2022/06/29 00:22:40;;;;;;;6.27;2.93;;;18.50;98.00;;;;;;4993947;28;20500;-67
2022/06/29 00:25:09;;;;;;;4.07;2.57;;;18.40;98.00;;;;;;4993726;28;20484;-67
2022/06/29 00:27:37;;;;;;;4.70;2.67;;;18.30;98.00;;;;;;4993843;28;20720;-68
2022/06/29 00:30:05;;;;;;;2.60;2.30;;;18.30;98.00;;;;;;4993838;28;20468;-67
2022/06/29 00:32:32;;;;;;;3.23;2.47;;;18.20;98.00;;;;;;4993718;28;20464;-67
2022/06/29 00:35:01;;;;;;;2.63;2.10;;;18.10;98.00;;;;;;4993645;28;20452;-68
2022/06/29 00:37:28;;;;;;;4.63;2.53;;;18.20;98.00;;;;;;4993582;28;20453;-68
2022/06/29 00:39:57;;;;;;;3.03;2.13;;;18.20;98.00;;;;;;4993612;28;20457;-67
2022/06/29 00:42:25;;;;;;;3.17;2.00;;;18.20;98.00;;;;;;4993565;28;20555;-67
2022/06/29 00:44:52;;;;;;;4.40;2.80;;;18.10;98.00;;;;;;4993480;28;20484;-67
2022/06/29 00:47:19;;;;;;;4.40;2.50;;;18.10;98.00;;;;;;4993559;28;20452;-67
2022/06/29 00:49:47;;;;;;;3.57;2.63;;;18.10;98.00;;;;;;4993717;28;20464;-68
2022/06/29 00:52:15;;;;;;;3.57;2.10;;;18.10;98.00;;;;;;4993755;28;20506;-67
2022/06/29 00:54:45;;;;;;;3.17;2.30;;;18.00;98.00;;;;;;4993002;28;20481;-67
2022/06/29 00:57:15;;;;;;;3.20;2.17;;;18.00;98.00;;;;;;4993244;28;20456;-67
2022/06/29 00:59:45;;;;;;;2.80;2.20;;;18.00;98.00;;;;;;4993106;28;20464;-67
2022/06/29 01:02:14;;;;;;;4.67;2.30;;;18.00;98.00;;;;;;4993175;28;20978;-67
2022/06/29 01:04:45;;;;;;;4.53;2.37;;;18.00;98.00;;;;;;4993133;28;21025;-68
2022/06/29 01:07:14;;;;;;;4.83;2.70;;;18.00;98.00;;;;;;4993056;28;20966;-67
2022/06/29 01:09:41;;;;;;;3.10;2.37;;;18.00;98.00;;;;;;4992986;28;20511;-67
2022/06/29 01:12:08;;;;;;;4.33;2.50;;;18.00;98.00;;;;;;4992846;28;21031;-66
2022/06/29 01:14:36;;;;;;;3.40;2.60;;;18.00;98.00;;;;;;4992998;28;20480;-67
2022/06/29 01:17:05;;;;;;;3.00;2.13;;;18.00;98.00;;;;;;4993247;28;20460;-67
2022/06/29 01:19:32;;;;;;;3.50;2.37;;;17.90;98.00;;;;;;4991899;28;20460;-67
2022/06/29 01:22:07;;;;;;;2.93;2.23;;;17.90;98.00;;;;;;4992655;28;20455;-67
2022/06/29 01:24:34;;;;;;;3.43;2.47;;;17.90;98.00;;;;;;4992713;28;20554;-67
2022/06/29 01:27:01;;;;;;;3.23;2.20;;;17.70;98.00;;;;;;4992760;28;21130;-67
2022/06/29 01:29:29;;;;;;;2.87;2.20;;;17.70;98.00;;;;;;4992563;28;20466;-68
2022/06/29 01:31:58;;;;;;;4.23;2.17;;;17.80;98.00;;;;;;4992788;28;20492;-67
2022/06/29 01:34:25;;;;;;;3.53;2.23;;;17.80;98.00;;;;;;4992524;28;20460;-67
2022/06/29 01:36:52;;;;;;;5.13;2.70;;;17.80;98.00;;;;;;4992475;28;20468;-67
2022/06/29 01:39:21;;;;;;;4.57;2.50;;;17.70;98.00;;;;;;4992344;28;20471;-67
2022/06/29 01:41:48;;;;;;;4.07;2.70;;;17.80;98.00;;;;;;4992483;28;20448;-67
2022/06/29 01:44:15;;;;;;;4.30;2.40;;;17.80;98.00;;;;;;4992396;28;20453;-68
2022/06/29 01:46:42;;;;;;;3.53;2.30;;;17.90;98.00;;;;;;4992442;28;20484;-67
2022/06/29 01:49:10;;;;;;;3.23;2.33;;;17.90;98.00;;;;;;4992353;28;20448;-68
2022/06/29 01:51:37;;;;;;;3.27;2.57;;;17.90;98.00;;;;;;4992772;28;20535;-67
2022/06/29 01:54:05;;;;;;;4.30;2.77;;;17.80;98.00;;;;;;4991388;28;20829;-67
2022/06/29 01:56:33;;;;;;;4.67;2.80;;;17.80;98.00;;;;;;4991892;28;20453;-67
2022/06/29 01:59:01;;;;;;;3.87;2.80;;;17.80;98.00;;;;;;4991998;28;20469;-67
2022/06/29 02:01:28;;;;;;;3.50;2.33;;;17.60;98.00;;;;;;4992267;28;20552;-67
2022/06/29 02:03:55;;;;;;;3.50;2.30;;;17.40;98.00;;;;;;4992095;28;20464;-67
2022/06/29 02:06:23;;;;;;;3.17;2.20;;;17.40;98.00;;;;;;4990981;28;20509;-67
2022/06/29 02:08:50;;;;;;;2.80;2.00;;;17.40;98.00;;;;;;4992130;28;20467;-67
2022/06/29 02:11:17;;;;;;;3.47;2.50;;;17.20;98.00;;;;;;4991010;28;20476;-67
2022/06/29 02:13:46;;;;;;;3.50;2.47;;;17.30;98.00;;;;;;4991952;28;20971;-67
2022/06/29 02:16:13;;;;;;;2.67;2.10;;;17.40;98.00;;;;;;4992034;28;20460;-67
2022/06/29 02:18:40;;;;;;;3.20;2.40;;;17.40;98.00;;;;;;4974687;28;20469;-68
2022/06/29 02:21:07;;;;;;;3.53;2.33;;;17.40;98.00;;;;;;4992056;28;20485;-67
2022/06/29 02:23:35;;;;;;;5.53;2.90;;;17.50;98.00;;;;;;4991971;28;20461;-67
2022/06/29 02:26:02;;;;;;;5.37;2.80;;;17.40;98.00;;;;;;4991819;28;21029;-67
2022/06/29 02:28:29;;;;;;;3.90;2.33;;;17.40;98.00;;;;;;4991834;28;20467;-67
2022/06/29 02:36:26;;;;;;;2.70;2.30;;;17.30;98.00;;;;;;4991912;28;20437;-67
2022/06/29 02:38:53;;;;;;;3.10;2.33;;;17.10;98.00;;;;;;4991720;28;20861;-68
2022/06/29 02:41:20;;;;;;;3.47;2.13;;;17.10;98.00;;;;;;4991869;28;20449;-67
2022/06/29 02:43:49;;;;;;;2.30;2.10;;;17.10;98.00;;;;;;4991667;28;20452;-67
2022/06/29 02:46:17;;;;;;;3.20;2.40;;;17.00;98.00;;;;;;4991541;28;20484;-67
2022/06/29 02:48:45;;;;;;;2.47;2.10;;;17.00;98.00;;;;;;4991748;28;20464;-66
2022/06/29 02:51:12;;;;;;;5.23;2.60;;;17.00;98.00;;;;;;4991838;28;20455;-67
2022/06/29 02:53:39;;;;;;;2.73;2.10;;;17.00;98.00;;;;;;4991791;28;20460;-67
2022/06/29 02:56:06;;;;;;;3.83;2.70;;;16.90;98.00;;;;;;4991704;28;20453;-67
2022/06/29 02:58:33;;;;;;;3.50;2.23;;;16.80;98.00;;;;;;4991681;28;20500;-67
2022/06/29 03:01:00;;;;;;;2.33;1.90;;;16.80;98.00;;;;;;4991626;28;20456;-67
2022/06/29 03:03:30;;;;;;;2.20;1.90;;;16.80;98.00;;;;;;4991596;28;20519;-68
2022/06/29 03:05:57;;;;;;;3.27;1.90;;;16.80;98.00;;;;;;4991663;28;20495;-67
2022/06/29 03:08:24;;;;;;;2.83;1.87;;;16.90;98.00;;;;;;4991565;28;20463;-67
2022/06/29 03:10:51;;;;;;;2.80;2.20;;;17.10;98.00;;;;;;4991269;28;20985;-67
2022/06/29 03:13:19;;;;;;;3.50;2.30;;;17.20;98.00;;;;;;4990328;28;20452;-67
2022/06/29 03:15:46;;;;;;;2.23;1.77;;;17.30;98.00;;;;;;4990305;28;20951;-66
2022/06/29 03:18:13;;;;;;;3.30;2.40;;;17.10;98.00;;;;;;4991474;28;20457;-67
2022/06/29 03:20:41;;;;;;;2.77;1.93;;;17.00;98.00;;;;;;4991297;28;20545;-67
2022/06/29 03:23:08;;;;;;;2.70;2.20;;;17.00;98.00;;;;;;4991245;28;21201;-67
2022/06/29 03:25:35;;;;;;;3.60;2.10;;;17.10;98.00;;;;;;4991321;28;20488;-66
2022/06/29 03:28:03;;;;;;;3.37;2.53;;;17.00;98.00;;;;;;4991169;28;20452;-67
2022/06/29 03:30:30;;;;;;;3.20;2.27;;;16.90;98.00;;;;;;4991436;28;20884;-66
2022/06/29 03:32:57;;;;;;;3.07;2.50;;;17.00;98.00;;;;;;4991047;28;20463;-67
2022/06/29 03:35:24;;;;;;;3.20;2.33;;;16.90;98.00;;;;;;4991110;28;20456;-66
2022/06/29 03:37:53;;;;;;;2.63;1.90;;;17.00;98.00;;;;;;4991630;28;20885;-67
2022/06/29 03:40:20;;;;;;;2.70;2.13;;;16.90;98.00;;;;;;4991375;28;20472;-67
2022/06/29 03:42:47;;;;;;;4.30;3.00;;;16.80;98.00;;;;;;4992017;28;20464;-67
2022/06/29 03:45:15;;;;;;;3.83;2.37;;;16.80;98.00;;;;;;4994043;28;20460;-67
2022/06/29 03:47:42;;;;;;;3.80;2.50;;;16.80;98.00;;;;;;4995108;28;20479;-67
2022/06/29 03:50:10;;;;;;;2.63;2.20;;;16.80;98.00;;;;;;4994568;28;20461;-67
2022/06/29 03:52:38;;;;;;;2.83;2.10;;;16.90;98.00;;;;;;4995162;28;20456;-67
2022/06/29 03:55:07;;;;;;;3.13;2.67;;;17.10;98.00;;;;;;4995049;28;20468;-66
2022/06/29 03:57:34;;;;;;;3.00;1.93;;;17.10;98.00;;;;;;4994614;28;20452;-67
2022/06/29 04:00:02;;;;;;;2.53;2.23;;;17.20;98.00;;;;;;4994364;28;20847;-67
2022/06/29 04:02:30;;;;;;;3.03;2.27;;;17.20;98.00;;;;;;4994368;28;20453;-67
2022/06/29 04:04:58;;;;;;;2.57;2.20;;;17.20;98.00;;;;;;4994435;28;20460;-67
2022/06/29 04:07:25;;;;;;;7.70;2.73;;;17.20;98.00;;;;;;4994210;28;20488;-67
2022/06/29 04:09:59;;;;;;;16.77;2.37;;;17.10;98.00;;;;;;4994266;28;20457;-67
2022/06/29 04:12:28;;;;;;;3.63;2.33;;;17.10;98.00;;;;;;4993267;28;20519;-67
2022/06/29 04:14:56;;;;;;;3.10;2.50;;;17.10;98.00;;;;;;4994053;28;20479;-67
2022/06/29 04:17:23;;;;;;;2.50;2.33;;;17.30;98.00;;;;;;4994215;28;20487;-67
2022/06/29 04:19:52;;;;;;;4.90;2.50;;;17.40;98.00;;;;;;4992679;28;20477;-67
2022/06/29 04:22:19;;;;;;;3.30;2.33;;;17.50;98.00;;;;;;4993912;28;20488;-67
2022/06/29 04:24:48;;;;;;;4.50;2.70;;;17.50;98.00;;;;;;4994138;28;20465;-67
2022/06/29 04:27:15;;;;;;;3.13;2.00;;;17.50;98.00;;;;;;4993893;28;20480;-67
2022/06/29 04:29:43;;;;;;;4.97;2.50;;;17.70;98.00;;;;;;4993242;28;20465;-67
2022/06/29 04:32:11;;;;;;;3.30;2.70;;;17.70;98.00;;;;;;4993986;28;20460;-67
2022/06/29 04:34:38;;;;;;;2.77;2.10;;;17.70;98.00;;;;;;4994034;28;20452;-67
2022/06/29 04:37:05;;;;;;;4.47;2.67;;;17.90;98.00;;;;;;4993918;28;20463;-67
2022/06/29 04:39:32;;;;;;;3.27;2.57;;;18.00;98.00;;;;;;4993773;28;20475;-67
2022/06/29 04:42:00;;;;;;;4.50;3.00;;;18.10;98.00;;;;;;4993664;28;20456;-67
2022/06/29 04:44:27;;;;;;;3.10;2.13;;;17.90;98.00;;;;;;4992083;28;20456;-67
2022/06/29 04:46:55;;;;;;;3.17;2.30;;;17.70;98.00;;;;;;4993716;28;20499;-67
2022/06/29 04:49:23;;;;;;;3.27;2.20;;;17.80;98.00;;;;;;4993444;28;20456;-67
2022/06/29 04:51:50;;;;;;;2.23;1.93;;;17.80;98.00;;;;;;4993764;28;20448;-67
2022/06/29 04:54:17;;;;;;;2.93;2.40;;;17.90;98.00;;;;;;4993323;28;20457;-66
2022/06/29 04:56:44;;;;;;;5.77;2.40;;;17.80;98.00;;;;;;4992222;28;20461;-67
2022/06/29 04:59:11;;;;;;;4.27;2.90;;;17.70;98.00;;;;;;4993220;28;20468;-67
2022/06/29 05:01:38;;;;;;;4.20;2.50;;;17.70;98.00;;;;;;4993489;28;20465;-67
2022/06/29 05:04:07;;;;;;;2.80;2.37;;;17.80;98.00;;;;;;4993077;28;20455;-67
2022/06/29 05:06:35;;;;;;;5.80;3.30;;;17.90;98.00;;;;;;4992730;28;20492;-67
2022/06/29 05:09:02;;;;;;;3.00;2.30;;;18.00;98.00;;;;;;4991926;28;20448;-67
2022/06/29 05:11:29;;;;;;;3.30;2.43;;;18.00;98.00;;;;;;4993232;28;20457;-67
2022/06/29 05:13:57;;;;;;;2.50;2.03;;;18.30;98.00;;;;;;4992960;28;20487;-67
2022/06/29 05:16:24;;;;;;;4.60;2.67;;;18.50;98.00;;;;;;4992939;28;20463;-67
2022/06/29 05:18:51;;;;;;;2.30;2.07;;;18.60;98.00;;;;;;4992796;28;20456;-67
2022/06/29 05:21:20;;;;;;;3.13;2.07;;;18.70;98.00;;;;;;4992815;28;20468;-67
2022/06/29 05:23:48;;;;;;;3.10;2.40;;;18.60;98.00;;;;;;4991322;28;20456;-67
2022/06/29 05:26:16;;;;;;;4.33;2.53;;;18.70;98.00;;;;;;4991435;28;20491;-67
2022/06/29 05:28:43;;;;;;;5.23;3.10;;;18.40;98.00;;;;;;4991418;28;20473;-67
2022/06/29 05:31:10;;;;;;;2.70;2.23;;;18.40;98.00;;;;;;4992549;28;21019;-67
2022/06/29 05:33:38;;;;;;;4.10;2.40;;;18.40;98.00;;;;;;4992652;28;20456;-67
2022/06/29 05:36:06;;;;;;;4.07;2.90;;;18.60;98.00;;;;;;4992586;28;20456;-67
2022/06/29 05:38:35;;;;;;;4.30;2.80;;;18.70;98.00;;;;;;4992493;28;20449;-67
2022/06/29 05:41:02;;;;;;;4.00;2.47;;;18.80;98.00;;;;;;4992793;28;20841;-67
2022/06/29 05:43:31;;;;;;;2.93;2.10;;;18.90;98.00;;;;;;4992517;28;20464;-67
2022/06/29 05:45:58;;;;;;;4.13;2.80;;;19.00;98.00;;;;;;4992132;28;20836;-67
2022/06/29 05:48:25;;;;;;;4.27;2.60;;;18.90;98.00;;;;;;4992560;28;20535;-67
2022/06/29 05:50:52;;;;;;;3.73;2.50;;;19.10;98.00;;;;;;4992648;28;20459;-67
2022/06/29 05:53:19;;;;;;;3.60;2.77;;;19.20;98.00;;;;;;4992543;28;20468;-67
2022/06/29 05:55:48;;;;;;;4.60;3.00;;;19.20;98.00;;;;;;4992094;28;20464;-67
2022/06/29 05:58:19;;;;;;;3.40;2.90;;;19.00;98.00;;;;;;4992218;28;20465;-67
2022/06/29 06:00:47;;;;;;;3.90;2.50;;;18.90;98.00;;;;;;4992312;28;20804;-67
2022/06/29 06:03:14;;;;;;;3.23;2.37;;;19.00;98.00;;;;;;4992356;28;20461;-67
2022/06/29 06:05:45;;;;;;;4.30;2.87;;;19.00;98.00;;;;;;4991683;28;20463;-67
2022/06/29 06:08:13;;;;;;;5.10;2.73;;;18.90;98.00;;;;;;4992252;28;20491;-67
2022/06/29 06:10:40;;;;;;;3.90;2.40;;;19.00;98.00;;;;;;4992133;28;20456;-67
2022/06/29 06:13:09;;;;;;;3.67;2.50;;;19.10;98.00;;;;;;4992060;28;20448;-67
2022/06/29 06:15:38;;;;;;;3.50;2.70;;;19.30;98.00;;;;;;4991983;28;20719;-67
2022/06/29 06:18:05;;;;;;;4.20;2.77;;;19.30;98.00;;;;;;4992094;28;20460;-68
2022/06/29 06:20:32;;;;;;;4.70;3.00;;;19.40;98.00;;;;;;4991818;28;20460;-67
2022/06/29 06:23:02;;;;;;;3.77;2.83;;;19.60;98.00;;;;;;4991601;28;20550;-67
2022/06/29 06:25:29;;;;;;;3.83;2.57;;;19.60;98.00;;;;;;4992413;28;20458;-67
2022/06/29 06:27:56;;;;;;;4.10;2.93;;;19.80;98.00;;;;;;4991782;28;20484;-68
2022/06/29 06:30:25;;;;;;;5.20;2.90;;;19.90;98.00;;;;;;4991266;28;20464;-67
2022/06/29 06:32:52;;;;;;;4.10;3.03;;;19.90;98.00;;;;;;4991981;28;20599;-68
2022/06/29 06:35:21;;;;;;;4.00;2.63;;;19.90;98.00;;;;;;4992017;28;20465;-67
2022/06/29 06:37:51;;;;;;;4.60;2.90;;;19.80;98.00;;;;;;4991707;28;20472;-67
2022/06/29 06:43:05;;;;;;;3.67;2.77;;;20.00;98.00;;;;;;4982313;28;20461;-68
2022/06/29 06:45:33;;;;;;;4.27;2.87;;;20.00;98.00;;;;;;4991226;28;20456;-67
2022/06/29 06:48:00;;;;;;;4.70;2.90;;;20.00;98.00;;;;;;4991944;28;21006;-68
2022/06/29 06:50:29;;;;;;;3.90;2.80;;;20.20;98.00;;;;;;4991586;28;20844;-68
2022/06/29 06:52:56;;;;;;;4.27;2.80;;;20.20;98.00;;;;;;4990772;28;20460;-67
2022/06/29 06:55:23;;;;;;;5.37;3.10;;;20.30;98.00;;;;;;4991832;28;20483;-67
2022/06/29 06:57:50;;;;;;;4.30;2.60;;;20.40;98.00;;;;;;4991685;28;20456;-67
2022/06/29 07:00:18;;;;;;;4.00;2.97;;;20.60;98.00;;;;;;4991733;28;20460;-66
2022/06/29 07:02:47;;;;;;;5.50;2.80;;;20.60;98.00;;;;;;4991666;28;20460;-67
2022/06/29 07:05:14;;;;;;;3.80;2.50;;;20.60;98.00;;;;;;4991510;28;20456;-67
2022/06/29 07:07:41;;;;;;;4.87;3.20;;;20.70;98.00;;;;;;4991599;28;20817;-66
2022/06/29 07:10:09;;;;;;;5.60;3.10;;;20.80;98.00;;;;;;4991469;28;20511;-67
2022/06/29 07:12:36;;;;;;;4.43;3.17;;;20.80;98.00;;;;;;4991409;28;20836;-66
2022/06/29 07:15:03;;;;;;;3.30;2.73;;;20.80;98.00;;;;;;4991566;28;20456;-66
2022/06/29 07:17:31;;;;;;;4.33;2.90;;;20.90;98.00;;;;;;4994883;28;20845;-66
2022/06/29 07:19:59;;;;;;;3.73;2.57;;;21.00;98.00;;;;;;4995163;28;20460;-67
2022/06/29 07:22:26;;;;;;;4.60;3.00;;;21.10;98.00;;;;;;4995079;28;20471;-66
2022/06/29 07:24:53;;;;;;;5.27;3.33;;;21.10;98.00;;;;;;4994988;28;20468;-66
2022/06/29 07:27:21;;;;;;;4.37;2.70;;;21.10;98.00;;;;;;4994697;28;20484;-66
2022/06/29 07:29:52;;;;;;;3.87;2.50;;;21.10;98.00;;;;;;5009654;28;20470;-73
2022/06/29 07:32:19;;;;;;;3.70;2.60;;;21.20;98.00;;;;;;5011788;28;20514;-71
2022/06/29 07:34:46;;;;;;;3.17;2.43;;;21.50;98.00;;;;;;5011880;28;20470;-71
2022/06/29 07:37:15;;;;;;;5.53;2.90;;;21.60;98.00;;;;;;4993763;28;20895;-71
2022/06/29 07:39:43;;;;;;;4.10;2.80;;;21.60;98.00;;;;;;5011961;28;20482;-71
2022/06/29 07:42:10;;;;;;;3.57;2.63;;;21.90;98.00;;;;;;5011753;28;20451;-72
2022/06/29 07:44:37;;;;;;;4.03;2.43;;;22.10;98.00;;;;;;5011649;28;20889;-72
2022/06/29 07:47:05;;;;;;;4.13;2.93;;;22.30;98.00;;;;;;4993831;28;20908;-71
2022/06/29 07:49:32;;;;;;;4.43;2.70;;;22.50;98.00;;;;;;5011623;28;20462;-72
2022/06/29 07:51:59;;;;;;;3.97;2.57;;;22.70;98.00;;;;;;5011619;28;20447;-73
2022/06/29 07:54:27;;;;;;;4.10;3.00;;;22.90;98.00;;;;;;5011386;28;20989;-71
2022/06/29 07:56:55;;;;;;;7.60;3.33;;;22.90;98.00;;;;;;5011455;28;20460;-72
2022/06/29 07:59:22;;;;;;;8.60;3.03;;;23.00;98.00;;;;;;5011392;28;20464;-72
2022/06/29 08:01:49;;;;;;;4.30;2.80;;;23.20;98.00;;;;;;5011404;28;20455;-63
2022/06/29 08:04:16;;;;;;;3.50;2.50;;;23.40;98.00;;;;;;5011042;28;20459;-66
2022/06/29 08:06:43;;;;;;;5.33;3.27;;;23.40;98.00;;;;;;5011248;28;20464;-66
2022/06/29 08:09:10;;;;;;;4.03;2.60;;;23.40;98.00;;;;;;4993793;28;20546;-66
2022/06/29 08:11:39;;;;;;;4.90;3.07;;;23.30;98.00;;;;;;5011431;28;20814;-66
2022/06/29 08:14:06;;;;;;;4.97;3.17;;;23.30;98.00;;;;;;5010718;28;20452;-66
2022/06/29 08:16:33;;;;;;;5.13;3.57;;;23.30;98.00;;;;;;5010940;28;20447;-66
2022/06/29 08:19:00;;;;;;;4.50;3.10;;;23.00;98.00;;;;;;5010906;28;20455;-66
2022/06/29 08:21:27;;;;;;;4.67;3.23;;;22.90;98.00;;;;;;5010938;28;21197;-66
2022/06/29 08:23:54;;;;;;;5.20;3.27;;;22.80;98.00;;;;;;5011097;28;20448;-66
2022/06/29 08:26:21;;;;;;;6.20;3.23;;;22.80;98.00;;;;;;5010952;28;20456;-67
2022/06/29 08:28:54;;;;;;;4.03;2.80;;;22.90;98.00;;;;;;5010245;28;20495;-66
2022/06/29 08:31:21;;;;;;;4.97;2.90;;;23.10;98.00;;;;;;5010747;28;20531;-66
2022/06/29 08:33:48;;;;;;;3.40;2.77;;;23.30;98.00;;;;;;5010856;28;20447;-66
2022/06/29 08:36:15;;;;;;;4.50;2.77;;;23.20;98.00;;;;;;5010575;28;20510;-66
2022/06/29 08:38:42;;;;;;;3.87;2.90;;;23.40;98.00;;;;;;5010410;28;20459;-66
2022/06/29 08:41:11;;;;;;;4.40;3.07;;;23.50;98.00;;;;;;5010423;28;20447;-66
2022/06/29 08:43:38;;;;;;;4.30;2.63;;;23.60;98.00;;;;;;5010569;28;20467;-66
2022/06/29 08:46:07;;;;;;;4.20;2.90;;;23.80;98.00;;;;;;5010491;28;20452;-66
2022/06/29 08:48:34;;;;;;;4.97;2.97;;;24.00;98.00;;;;;;5010555;28;20498;-66
2022/06/29 08:51:01;;;;;;;3.80;2.90;;;23.80;98.00;;;;;;5010603;28;20899;-66
2022/06/29 08:53:29;;;;;;;5.87;3.40;;;23.80;98.00;;;;;;5010757;28;20456;-66
2022/06/29 08:55:56;;;;;;;3.80;2.43;;;23.80;98.00;;;;;;5010360;28;20456;-66
2022/06/29 08:58:25;;;;;;;3.47;2.70;;;23.90;98.00;;;;;;5010123;28;20467;-66
2022/06/29 09:00:53;;;;;;;4.03;2.70;;;24.20;98.00;;;;;;5010346;28;20452;-66
2022/06/29 09:03:24;;;;;;;3.13;2.60;;;24.30;98.00;;;;;;5010056;28;20447;-66
2022/06/29 09:05:55;;;;;;;9.97;4.43;;;24.40;98.00;;;;;;4992423;28;20802;-66
2022/06/29 09:08:22;;;;;;;3.33;2.70;;;24.40;98.00;;;;;;5009899;28;20527;-66
2022/06/29 09:10:50;;;;;;;4.90;3.07;;;24.30;98.00;;;;;;5011291;28;20463;-66
2022/06/29 09:13:20;;;;;;;5.60;2.83;;;24.40;98.00;;;;;;5012231;28;20460;-66
2022/06/29 09:15:48;;;;;;;3.30;2.50;;;24.50;98.00;;;;;;4995460;28;20494;-66
2022/06/29 09:18:28;;;;;;;6.33;3.10;;;24.90;98.00;;;;;;5012428;28;20463;-66
2022/06/29 09:20:57;;;;;;;3.00;2.53;;;25.10;98.00;;;;;;4995310;28;20885;-66
2022/06/29 09:23:25;;;;;;;3.93;2.93;;;25.10;98.00;;;;;;5012361;28;20455;-66
2022/06/29 09:25:53;;;;;;;4.87;2.77;;;25.20;98.00;;;;;;5012433;28;20447;-67
2022/06/29 09:28:23;;;;;;;8.50;2.90;;;25.50;98.00;;;;;;5012534;28;20566;-66
2022/06/29 09:30:52;;;;;;;4.87;3.37;;;25.70;98.00;;;;;;5012263;28;20470;-66
2022/06/29 09:33:21;;;;;;;4.33;2.93;;;25.70;98.00;;;;;;5012620;28;20466;-66
2022/06/29 09:36:06;;;;;;;6.10;3.13;;;25.70;98.00;;;;;;5012304;28;20460;-66
2022/06/29 09:38:34;;;;;;;4.73;2.87;;;25.50;98.00;;;;;;4994867;28;20467;-66
2022/06/29 09:41:03;;;;;;;6.27;3.00;;;25.40;98.00;;;;;;5011539;28;20456;-66
2022/06/29 09:43:31;;;;;;;3.80;2.47;;;25.30;98.00;;;;;;4994538;28;20467;-66
2022/06/29 09:46:00;;;;;;;4.20;3.00;;;25.30;98.00;;;;;;5012075;28;20463;-66
2022/06/29 09:48:28;;;;;;;4.40;2.80;;;25.30;98.00;;;;;;5012242;28;20494;-66
2022/06/29 09:50:58;;;;;;;5.23;3.10;;;25.40;98.00;;;;;;5012159;28;21019;-66
2022/06/29 09:53:28;;;;;;;3.33;2.70;;;25.40;98.00;;;;;;4994935;28;20467;-67
2022/06/29 09:55:57;;;;;;;4.20;2.90;;;25.40;98.00;;;;;;4995370;28;20459;-67
2022/06/29 09:58:42;;;;;;;5.80;3.40;;;25.50;98.00;;;;;;5011935;28;20467;-66
2022/06/29 10:03:56;;;;;;;3.60;2.47;;;25.80;98.00;;;;;;5012007;28;20623;-66
2022/06/29 10:06:25;;;;;;;3.87;2.60;;;25.80;98.00;;;;;;5011861;28;20885;-66
2022/06/29 10:08:53;;;;;;;3.87;2.27;;;25.90;98.00;;;;;;5011572;28;20483;-66
2022/06/29 10:14:26;;;;;;;4.23;2.50;;;25.80;98.00;;;;;;5011730;28;20439;-66
2022/06/29 10:17:01;;;;;;;4.90;3.00;;;25.90;98.00;;;;;;5011580;28;20471;-66
2022/06/29 10:19:43;;;;;;;4.13;2.70;;;25.90;98.00;;;;;;5011329;28;20455;-66
2022/06/29 10:22:12;;;;;;;4.10;3.03;;;25.90;98.00;;;;;;4995086;28;20463;-67
2022/06/29 10:24:39;;;;;;;5.50;3.10;;;26.00;98.00;;;;;;5012229;28;20448;-67
2022/06/29 10:27:07;;;;;;;6.23;4.13;;;26.30;98.00;;;;;;5012072;28;20451;-67
2022/06/29 10:29:36;;;;;;;4.70;3.00;;;26.70;98.00;;;;;;5012066;28;20575;-67
2022/06/29 10:32:19;;;;;;;4.40;3.00;;;26.90;98.00;;;;;;5012087;28;20460;-67
2022/06/29 10:37:33;;;;;;;4.80;3.00;;;27.30;98.00;;;;;;5012352;28;20517;-66
2022/06/29 10:40:04;;;;;;;4.20;2.80;;;27.40;97.60;;;;;;4994272;28;20463;-67
2022/06/29 10:45:40;;;;;;;4.20;2.80;;;27.90;98.00;;;;;;5012363;28;20442;-67
2022/06/29 10:48:30;;;;;;;3.53;2.60;;;28.10;97.30;;;;;;4994687;28;20480;-67
2022/06/29 10:50:58;;;;;;;3.43;2.40;;;28.30;96.40;;;;;;5013008;28;20522;-67
2022/06/29 10:53:27;;;;;;;3.80;2.70;;;28.20;96.70;;;;;;5016023;28;20455;-67
2022/06/29 10:55:56;;;;;;;3.90;2.97;;;28.40;96.30;;;;;;4998424;28;20466;-67
2022/06/29 10:58:24;;;;;;;4.80;2.67;;;28.70;96.30;;;;;;5015431;28;20475;-67
2022/06/29 11:00:53;;;;;;;2.93;2.17;;;29.10;95.90;;;;;;5015948;28;20456;-67
2022/06/29 11:03:25;;;;;;;6.27;3.00;;;29.30;93.30;;;;;;5014902;28;20455;-67
2022/06/29 11:16:59;;;;;;;4.10;2.80;;;29.30;92.70;;;;;;5000661;28;20454;-67
2022/06/29 11:19:29;;;;;;;4.70;3.00;;;29.00;93.20;;;;;;5015360;28;20447;-66
2022/06/29 11:22:10;;;;;;;5.53;3.10;;;29.00;94.30;;;;;;5015460;28;20889;-67
2022/06/29 11:24:56;;;;;;;4.23;2.57;;;28.70;94.20;;;;;;5015130;28;20455;-66
2022/06/29 11:27:38;;;;;;;4.03;2.63;;;28.30;94.90;;;;;;5015312;28;20467;-67
2022/06/29 11:30:09;;;;;;;4.17;2.93;;;28.20;96.00;;;;;;4997620;28;20459;-67
2022/06/29 11:32:41;;;;;;;4.00;2.60;;;28.20;96.30;;;;;;4997999;28;20983;-67
2022/06/29 11:35:10;;;;;;;3.77;2.80;;;28.00;97.00;;;;;;5014709;28;20459;-67
2022/06/29 11:37:37;;;;;;;4.37;2.43;;;28.00;97.20;;;;;;5015205;28;20459;-67
2022/06/29 11:40:07;;;;;;;4.20;2.23;;;27.80;98.00;;;;;;5014895;28;20485;-67
2022/06/29 11:45:20;;;;;;;4.90;3.00;;;27.60;98.00;;;;;;5015127;28;20443;-67
2022/06/29 11:47:54;;;;;;;3.73;2.30;;;27.40;98.00;;;;;;5015091;28;20451;-67
2022/06/29 11:50:22;;;;;;;4.77;2.70;;;27.30;98.00;;;;;;5015093;28;20466;-67
2022/06/29 11:52:51;;;;;;;8.30;2.67;;;27.20;96.00;;;;;;5015107;28;20459;-65
2022/06/29 11:55:41;;;;;;;3.90;2.50;;;27.10;98.00;;;;;;5014540;28;20467;-65
2022/06/29 11:58:10;;;;;;;3.43;2.33;;;27.20;96.50;;;;;;5014602;28;20507;-67
2022/06/29 12:00:44;;;;;;;4.67;2.37;;;27.00;97.70;;;;;;5014914;28;20456;-67
2022/06/29 12:03:14;;;;;;;3.07;2.33;;;27.50;97.40;;;;;;5013596;28;20818;-66
2022/06/29 12:05:57;;;;;;;6.73;3.00;;;28.20;97.60;;;;;;5014483;28;20905;-68
2022/06/29 12:08:24;;;;;;;4.77;2.80;;;29.00;94.70;;;;;;5014371;28;20519;-67
2022/06/29 12:10:52;;;;;;;3.17;2.40;;;29.70;92.10;;;;;;5014304;28;20471;-67
2022/06/29 12:13:20;;;;;;;14.50;3.00;;;30.20;91.20;;;;;;5014432;28;20514;-66
2022/06/29 12:15:47;;;;;;;5.30;2.77;;;30.30;89.30;;;;;;4996975;28;20456;-67
2022/06/29 12:18:16;;;;;;;3.10;2.57;;;30.60;93.20;;;;;;5014289;28;20463;-66
2022/06/29 12:20:43;;;;;;;5.60;3.03;;;31.00;91.40;;;;;;4997267;28;20515;-71
2022/06/29 12:23:10;;;;;;;5.60;3.00;;;31.20;87.40;;;;;;4996909;28;20456;-69
2022/06/29 12:25:37;;;;;;;4.90;3.00;;;31.30;88.10;;;;;;5014442;28;20459;-69
2022/06/29 12:28:06;;;;;;;5.00;3.50;;;31.60;86.90;;;;;;5014260;28;20462;-70
2022/06/29 12:30:34;;;;;;;4.27;2.77;;;31.90;87.80;;;;;;5014435;28;20539;-70
2022/06/29 12:33:02;;;;;;;5.67;3.00;;;32.20;87.40;;;;;;5014176;28;20452;-70
2022/06/29 12:35:29;;;;;;;4.77;3.00;;;32.40;86.90;;;;;;5014353;28;20534;-69
2022/06/29 12:37:58;;;;;;;4.30;3.13;;;32.20;84.90;;;;;;5014050;28;20463;-67
2022/06/29 12:40:25;;;;;;;4.03;2.90;;;31.70;85.90;;;;;;4996807;28;20553;-64
2022/06/29 12:42:53;;;;;;;3.87;3.03;;;31.40;86.70;;;;;;5014350;28;20514;-70
2022/06/29 12:45:21;;;;;;;4.17;2.70;;;31.20;85.90;;;;;;5013741;28;20499;-68
2022/06/29 12:47:48;;;;;;;5.33;2.73;;;30.90;87.20;;;;;;5013838;28;21127;-68
2022/06/29 12:50:15;;;;;;;3.83;3.00;;;30.80;87.40;;;;;;5013846;28;20854;-67
2022/06/29 12:52:46;;;;;;;4.10;2.60;;;31.00;87.60;;;;;;5013922;28;20467;-68
2022/06/29 12:55:13;;;;;;;3.90;2.70;;;31.00;88.40;;;;;;5013655;28;20824;-70
2022/06/29 12:57:43;;;;;;;3.43;2.50;;;31.00;88.00;;;;;;5013560;28;20510;-69
2022/06/29 13:00:12;;;;;;;3.67;2.60;;;30.70;86.00;;;;;;5013498;28;20456;-69
2022/06/29 13:02:41;;;;;;;4.60;3.10;;;30.30;89.20;;;;;;5013458;28;20466;-69
2022/06/29 13:05:09;;;;;;;3.47;2.90;;;30.50;88.80;;;;;;5013516;28;20463;-70
2022/06/29 13:07:37;;;;;;;3.50;2.90;;;30.70;88.70;;;;;;5013327;28;20495;-68
2022/06/29 13:10:06;;;;;;;2.93;2.60;;;31.10;90.20;;;;;;5013224;28;20487;-68
2022/06/29 13:12:33;;;;;;;3.80;2.67;;;31.70;87.30;;;;;;5013417;28;20455;-69
2022/06/29 13:15:03;;;;;;;4.13;2.83;;;32.00;84.90;;;;;;5013237;28;20542;-69
2022/06/29 13:17:30;;;;;;;3.87;2.77;;;32.30;83.30;;;;;;5013261;28;20517;-69
2022/06/29 13:20:00;;;;;;;5.40;3.00;;;32.70;87.10;;;;;;5013101;28;20463;-67
2022/06/29 13:22:28;;;;;;;3.80;2.53;;;33.00;83.20;;;;;;4995568;28;20466;-69
2022/06/29 13:24:55;;;;;;;5.07;3.03;;;32.90;82.40;;;;;;5013068;28;20455;-68
2022/06/29 13:27:22;;;;;;;3.90;2.90;;;33.10;82.30;;;;;;5013159;28;20962;-70